Time;durP1;ratioP1;P1;durP2;ratioP2;P2;SDS_P1;SDS_P2;PMS_P1;PMS_P2;Temp;Humidity;BMP_temperature;BMP_pressure;BME280_temperature;BME280_humidity;BME280_pressure;Samples;Min_cycle;Max_cycle;Signal;HPM_P1;HPM_P2
2024/01/10 00:01:13;;;;;;;2.13;1.38;;;;;;;;;;4990689;28;20394;-56
2024/01/10 00:03:38;;;;;;;2.25;1.38;;;;;;;;;;4987637;28;20169;-54
2024/01/10 00:06:04;;;;;;;2.25;1.60;;;;;;;;;;4984330;28;20030;-54
2024/01/10 00:08:29;;;;;;;2.53;1.75;;;;;;;;;;4966986;28;20443;-54
2024/01/10 00:10:54;;;;;;;2.85;1.80;;;;;;;;;;4993821;28;20045;-54
2024/01/10 00:13:21;;;;;;;1.88;1.30;;;;;;;;;;4982768;28;20053;-55
2024/01/10 00:15:46;;;;;;;2.63;1.40;;;;;;;;;;5027208;23;20374;-51
2024/01/10 00:18:12;;;;;;;3.28;1.55;;;;;;;;;;5008284;28;20029;-52
2024/01/10 00:20:37;;;;;;;2.13;1.40;;;;;;;;;;5021760;28;20084;-53
2024/01/10 00:23:02;;;;;;;2.05;1.33;;;;;;;;;;5007536;28;20034;-53
2024/01/10 00:25:28;;;;;;;1.98;1.30;;;;;;;;;;5025026;28;20044;-54
2024/01/10 00:27:53;;;;;;;2.35;1.60;;;;;;;;;;5030991;28;20537;-54
2024/01/10 00:30:19;;;;;;;1.75;1.20;;;;;;;;;;5039381;28;20550;-53
2024/01/10 00:32:44;;;;;;;2.80;1.25;;;;;;;;;;5033678;28;20132;-53
2024/01/10 00:35:11;;;;;;;1.90;1.30;;;;;;;;;;5023276;28;20036;-53
2024/01/10 00:37:36;;;;;;;2.17;1.40;;;;;;;;;;5026221;28;20505;-53
2024/01/10 00:40:01;;;;;;;1.90;1.20;;;;;;;;;;5034861;23;20053;-55
2024/01/10 00:42:27;;;;;;;2.22;1.27;;;;;;;;;;5027796;28;20055;-57
2024/01/10 00:44:52;;;;;;;2.38;1.30;;;;;;;;;;5026137;28;20049;-54
2024/01/10 00:47:17;;;;;;;1.80;1.30;;;;;;;;;;5010397;28;20033;-54
2024/01/10 00:49:43;;;;;;;1.83;1.23;;;;;;;;;;5038497;28;20117;-54
2024/01/10 00:52:08;;;;;;;2.28;1.40;;;;;;;;;;5029696;28;20060;-53
2024/01/10 00:54:33;;;;;;;2.22;1.30;;;;;;;;;;5027362;28;20487;-53
2024/01/10 00:56:59;;;;;;;2.83;1.40;;;;;;;;;;5034663;28;20113;-54
2024/01/10 00:59:24;;;;;;;1.65;1.20;;;;;;;;;;5028679;28;20086;-54
2024/01/10 01:01:49;;;;;;;2.08;1.40;;;;;;;;;;5032192;28;20045;-54
2024/01/10 01:04:15;;;;;;;2.33;1.20;;;;;;;;;;5035171;28;20096;-54
2024/01/10 01:06:40;;;;;;;2.08;1.50;;;;;;;;;;5026283;28;20180;-54
2024/01/10 01:09:05;;;;;;;1.60;1.10;;;;;;;;;;5027043;28;20395;-54
2024/01/10 01:11:30;;;;;;;1.42;1.00;;;;;;;;;;5012883;28;20041;-54
2024/01/10 01:13:56;;;;;;;1.63;1.00;;;;;;;;;;5026400;28;20036;-54
2024/01/10 01:16:21;;;;;;;2.10;1.40;;;;;;;;;;5024506;23;20056;-53
2024/01/10 01:18:46;;;;;;;1.88;1.17;;;;;;;;;;4997995;28;20056;-55
2024/01/10 01:21:12;;;;;;;1.77;1.10;;;;;;;;;;5000928;28;20164;-54
2024/01/10 01:23:37;;;;;;;1.67;1.20;;;;;;;;;;5002284;28;20045;-53
2024/01/10 01:26:03;;;;;;;2.22;1.20;;;;;;;;;;4988729;28;20068;-56
2024/01/10 01:28:29;;;;;;;2.13;1.40;;;;;;;;;;5008782;28;20068;-54
2024/01/10 01:30:54;;;;;;;2.00;1.23;;;;;;;;;;5015589;28;20041;-53
2024/01/10 01:33:20;;;;;;;1.85;1.30;;;;;;;;;;5008091;28;20145;-54
2024/01/10 01:35:45;;;;;;;1.85;1.23;;;;;;;;;;5007572;28;20045;-55
2024/01/10 01:38:10;;;;;;;2.25;1.20;;;;;;;;;;5010541;28;20045;-54
2024/01/10 01:40:36;;;;;;;1.38;0.90;;;;;;;;;;4994413;28;20026;-55
2024/01/10 01:43:01;;;;;;;1.80;1.15;;;;;;;;;;4999751;28;21692;-54
2024/01/10 01:45:26;;;;;;;1.67;1.23;;;;;;;;;;5004391;28;20572;-55
2024/01/10 01:47:51;;;;;;;1.65;1.17;;;;;;;;;;4995246;28;21451;-56
2024/01/10 01:50:17;;;;;;;1.75;1.38;;;;;;;;;;4985661;28;20509;-54
2024/01/10 01:52:43;;;;;;;1.50;1.02;;;;;;;;;;5005232;28;20042;-53
2024/01/10 01:55:08;;;;;;;1.92;1.10;;;;;;;;;;4989024;28;20030;-54
2024/01/10 01:57:33;;;;;;;2.30;1.45;;;;;;;;;;5005173;28;20049;-54
2024/01/10 01:59:59;;;;;;;2.05;1.20;;;;;;;;;;5005145;28;20034;-54
2024/01/10 02:02:24;;;;;;;1.98;1.20;;;;;;;;;;4993978;28;20034;-54
2024/01/10 02:04:49;;;;;;;1.45;1.10;;;;;;;;;;4999154;28;20050;-54
2024/01/10 02:07:15;;;;;;;1.80;1.10;;;;;;;;;;5003627;28;20060;-54
2024/01/10 02:09:40;;;;;;;1.70;1.30;;;;;;;;;;5004383;28;20033;-54
2024/01/10 02:12:05;;;;;;;1.52;1.00;;;;;;;;;;5007247;28;20552;-54
2024/01/10 02:14:31;;;;;;;1.75;1.00;;;;;;;;;;5006924;28;20030;-56
2024/01/10 02:16:56;;;;;;;1.55;1.00;;;;;;;;;;5003946;28;20037;-55
2024/01/10 02:19:22;;;;;;;1.55;1.10;;;;;;;;;;5002971;28;20064;-55
2024/01/10 02:21:47;;;;;;;1.77;1.00;;;;;;;;;;5004944;28;20044;-54
2024/01/10 02:24:12;;;;;;;1.80;1.00;;;;;;;;;;5002058;28;20045;-54
2024/01/10 02:26:38;;;;;;;1.60;1.00;;;;;;;;;;5003830;28;20426;-55
2024/01/10 02:29:03;;;;;;;1.55;1.02;;;;;;;;;;4986833;28;20048;-53
2024/01/10 02:31:29;;;;;;;1.40;0.93;;;;;;;;;;4989332;28;20125;-53
2024/01/10 02:33:54;;;;;;;1.40;1.00;;;;;;;;;;5012727;28;20117;-55
2024/01/10 02:36:19;;;;;;;1.60;0.98;;;;;;;;;;5006636;28;20115;-54
2024/01/10 02:38:45;;;;;;;1.98;1.08;;;;;;;;;;5005606;28;20033;-54
2024/01/10 02:41:10;;;;;;;1.70;1.10;;;;;;;;;;5018149;28;20481;-54
2024/01/10 02:43:35;;;;;;;1.50;1.10;;;;;;;;;;5010166;28;20466;-53
2024/01/10 02:46:01;;;;;;;2.13;1.15;;;;;;;;;;5008242;28;20042;-54
2024/01/10 02:48:26;;;;;;;2.15;1.05;;;;;;;;;;4992684;28;20139;-54
2024/01/10 02:50:51;;;;;;;1.45;0.90;;;;;;;;;;5006247;28;20421;-56
2024/01/10 02:53:16;;;;;;;1.63;1.13;;;;;;;;;;5007400;28;20034;-55
2024/01/10 02:55:42;;;;;;;1.48;0.98;;;;;;;;;;5013952;28;20049;-54
2024/01/10 02:58:08;;;;;;;2.13;0.75;;;;;;;;;;4997937;28;20132;-53
2024/01/10 03:00:33;;;;;;;2.00;1.20;;;;;;;;;;4997002;28;20482;-54
2024/01/10 03:02:58;;;;;;;1.88;1.10;;;;;;;;;;5005058;28;20579;-53
2024/01/10 03:05:24;;;;;;;2.10;1.13;;;;;;;;;;5007571;28;20034;-54
2024/01/10 03:07:49;;;;;;;2.00;1.10;;;;;;;;;;4986029;28;20081;-53
2024/01/10 03:10:14;;;;;;;2.10;1.00;;;;;;;;;;4989807;28;20062;-53
2024/01/10 03:12:40;;;;;;;2.20;1.20;;;;;;;;;;5014401;28;20065;-53
2024/01/10 03:15:06;;;;;;;1.45;0.90;;;;;;;;;;5005814;28;20057;-53
2024/01/10 03:17:33;;;;;;;1.80;1.10;;;;;;;;;;5010469;28;20076;-53
2024/01/10 03:19:59;;;;;;;1.20;0.80;;;;;;;;;;5005672;28;20092;-53
2024/01/10 03:22:24;;;;;;;1.70;1.13;;;;;;;;;;5004010;28;20034;-59
2024/01/10 03:24:49;;;;;;;1.70;1.17;;;;;;;;;;5010541;28;20054;-54
2024/01/10 03:27:15;;;;;;;1.70;1.10;;;;;;;;;;4995125;28;20061;-53
2024/01/10 03:29:40;;;;;;;1.33;0.98;;;;;;;;;;5015482;28;20124;-53
2024/01/10 03:32:06;;;;;;;2.10;1.10;;;;;;;;;;5009303;28;20045;-54
2024/01/10 03:34:31;;;;;;;1.52;0.82;;;;;;;;;;5009403;28;20084;-54
2024/01/10 03:36:57;;;;;;;1.08;0.88;;;;;;;;;;5003421;28;20042;-55
2024/01/10 03:39:22;;;;;;;2.03;1.17;;;;;;;;;;5006817;28;20042;-55
2024/01/10 03:41:48;;;;;;;1.58;1.00;;;;;;;;;;5009611;28;20086;-53
2024/01/10 03:44:13;;;;;;;1.77;1.10;;;;;;;;;;5006779;28;20045;-54
2024/01/10 03:46:39;;;;;;;1.67;1.08;;;;;;;;;;5001746;28;20077;-55
2024/01/10 03:49:04;;;;;;;1.52;0.93;;;;;;;;;;5005007;28;20060;-54
2024/01/10 03:51:30;;;;;;;2.03;1.30;;;;;;;;;;5006715;28;20041;-53
2024/01/10 03:53:55;;;;;;;1.35;0.80;;;;;;;;;;4992799;28;20079;-55
2024/01/10 03:56:20;;;;;;;1.67;0.88;;;;;;;;;;5008302;28;20119;-53
2024/01/10 03:58:48;;;;;;;1.58;0.90;;;;;;;;;;5002846;28;20034;-53
2024/01/10 04:01:13;;;;;;;1.65;1.17;;;;;;;;;;5006949;28;20498;-53
2024/01/10 04:03:42;;;;;;;1.50;1.10;;;;;;;;;;5018208;28;20051;-52
2024/01/10 04:06:07;;;;;;;1.90;1.05;;;;;;;;;;5016347;28;20049;-54
2024/01/10 04:08:32;;;;;;;1.27;0.95;;;;;;;;;;5004879;28;20034;-53
2024/01/10 04:10:58;;;;;;;1.30;0.93;;;;;;;;;;5009203;28;20418;-54
2024/01/10 04:13:23;;;;;;;1.77;1.10;;;;;;;;;;5017688;28;20046;-53
2024/01/10 04:15:48;;;;;;;1.35;0.77;;;;;;;;;;4990395;28;20033;-55
2024/01/10 04:18:14;;;;;;;2.00;1.20;;;;;;;;;;5007369;28;20093;-54
2024/01/10 04:20:39;;;;;;;1.48;0.90;;;;;;;;;;5007988;28;20038;-55
2024/01/10 04:23:04;;;;;;;1.95;1.00;;;;;;;;;;5007950;28;20066;-54
2024/01/10 04:25:30;;;;;;;1.40;1.00;;;;;;;;;;5011414;28;20087;-54
2024/01/10 04:27:57;;;;;;;1.63;1.05;;;;;;;;;;5018111;28;20778;-55
2024/01/10 04:30:22;;;;;;;1.58;1.10;;;;;;;;;;4986690;28;20038;-54
2024/01/10 04:32:47;;;;;;;1.30;0.77;;;;;;;;;;4996040;28;20053;-55
2024/01/10 04:35:13;;;;;;;1.40;0.88;;;;;;;;;;4999158;28;20425;-53
2024/01/10 04:37:38;;;;;;;1.83;1.05;;;;;;;;;;5007665;28;20048;-53
2024/01/10 04:40:04;;;;;;;1.38;0.90;;;;;;;;;;5004559;28;20034;-54
2024/01/10 04:42:30;;;;;;;4.57;1.05;;;;;;;;;;5004043;28;20030;-55
2024/01/10 04:44:55;;;;;;;1.52;1.00;;;;;;;;;;4994803;28;22169;-53
2024/01/10 04:47:21;;;;;;;3.10;1.17;;;;;;;;;;4990672;28;20051;-55
2024/01/10 04:49:46;;;;;;;2.28;0.85;;;;;;;;;;4983424;28;20056;-54
2024/01/10 04:52:12;;;;;;;2.92;1.17;;;;;;;;;;4991508;28;20041;-53
2024/01/10 04:54:37;;;;;;;1.27;0.85;;;;;;;;;;4995621;28;20482;-53
2024/01/10 04:57:03;;;;;;;1.20;0.70;;;;;;;;;;5001646;28;20034;-53
2024/01/10 04:59:28;;;;;;;1.33;1.00;;;;;;;;;;4994032;28;20033;-53
2024/01/10 05:01:54;;;;;;;1.95;0.85;;;;;;;;;;5002240;28;20036;-53
2024/01/10 05:04:19;;;;;;;1.80;1.00;;;;;;;;;;5002626;28;20065;-53
2024/01/10 05:06:44;;;;;;;1.73;0.90;;;;;;;;;;4998126;28;20069;-54
2024/01/10 05:09:09;;;;;;;1.67;0.82;;;;;;;;;;5000496;28;20041;-56
2024/01/10 05:11:35;;;;;;;1.27;0.82;;;;;;;;;;4999656;28;20944;-54
2024/01/10 05:14:01;;;;;;;1.30;0.75;;;;;;;;;;4976443;28;20041;-58
2024/01/10 05:16:26;;;;;;;1.58;0.90;;;;;;;;;;4996429;28;20049;-53
2024/01/10 05:18:51;;;;;;;1.55;1.02;;;;;;;;;;4987739;28;20137;-55
2024/01/10 05:21:17;;;;;;;1.50;1.02;;;;;;;;;;4993726;28;20500;-52
2024/01/10 05:23:42;;;;;;;1.08;0.70;;;;;;;;;;4994144;28;20073;-54
2024/01/10 05:26:07;;;;;;;1.65;0.85;;;;;;;;;;4993701;28;20432;-52
2024/01/10 05:28:33;;;;;;;1.55;0.90;;;;;;;;;;4990414;28;20508;-54
2024/01/10 05:30:58;;;;;;;1.17;0.80;;;;;;;;;;4999469;28;20475;-53
2024/01/10 05:33:23;;;;;;;1.40;0.80;;;;;;;;;;4998002;28;20368;-55
2024/01/10 05:35:49;;;;;;;1.33;0.98;;;;;;;;;;4995355;28;21992;-54
2024/01/10 05:38:14;;;;;;;1.65;0.90;;;;;;;;;;4991626;28;20868;-54
2024/01/10 05:40:40;;;;;;;1.98;1.00;;;;;;;;;;4991817;28;20546;-53
2024/01/10 05:43:06;;;;;;;3.03;1.27;;;;;;;;;;4993689;28;20053;-54
2024/01/10 05:45:32;;;;;;;1.70;0.90;;;;;;;;;;4998729;28;20453;-55
2024/01/10 05:47:57;;;;;;;1.63;1.13;;;;;;;;;;4999640;28;20053;-54
2024/01/10 05:50:23;;;;;;;1.77;1.02;;;;;;;;;;5000087;28;20124;-55
2024/01/10 05:52:48;;;;;;;2.20;1.10;;;;;;;;;;5001967;28;20038;-53
2024/01/10 05:55:13;;;;;;;1.70;0.95;;;;;;;;;;5000132;28;20046;-52
2024/01/10 05:57:39;;;;;;;3.03;1.00;;;;;;;;;;4994333;28;20045;-54
2024/01/10 06:00:09;;;;;;;2.42;1.00;;;;;;;;;;5002754;28;20557;-54
2024/01/10 06:02:35;;;;;;;1.90;1.00;;;;;;;;;;5001394;28;20073;-54
2024/01/10 06:05:00;;;;;;;2.47;1.10;;;;;;;;;;5000286;28;20034;-53
2024/01/10 06:07:26;;;;;;;1.83;0.95;;;;;;;;;;4998102;28;20034;-54
2024/01/10 06:09:51;;;;;;;1.65;1.10;;;;;;;;;;4993901;28;20482;-53
2024/01/10 06:12:17;;;;;;;2.60;1.00;;;;;;;;;;5000665;28;20575;-52
2024/01/10 06:14:43;;;;;;;1.30;0.80;;;;;;;;;;4998252;28;20050;-55
2024/01/10 06:17:08;;;;;;;1.63;1.00;;;;;;;;;;4996862;28;20060;-53
2024/01/10 06:19:33;;;;;;;1.35;0.73;;;;;;;;;;4994380;28;20112;-56
2024/01/10 06:21:59;;;;;;;1.20;0.90;;;;;;;;;;4994149;28;20033;-54
2024/01/10 06:24:24;;;;;;;1.20;0.82;;;;;;;;;;4994899;28;20084;-53
2024/01/10 06:26:50;;;;;;;1.15;0.73;;;;;;;;;;4995228;28;20087;-53
2024/01/10 06:29:15;;;;;;;1.70;1.00;;;;;;;;;;4991324;28;20045;-54
2024/01/10 06:31:41;;;;;;;1.75;1.00;;;;;;;;;;4996438;28;20069;-53
2024/01/10 06:34:06;;;;;;;2.13;1.20;;;;;;;;;;4996984;28;20470;-54
2024/01/10 06:36:31;;;;;;;1.92;1.20;;;;;;;;;;4999219;28;20377;-54
2024/01/10 06:38:57;;;;;;;2.40;1.20;;;;;;;;;;4997875;28;20065;-53
2024/01/10 06:41:25;;;;;;;2.55;1.05;;;;;;;;;;4999176;28;20081;-52
2024/01/10 06:43:53;;;;;;;2.90;1.13;;;;;;;;;;4997290;28;20054;-54
2024/01/10 06:46:19;;;;;;;2.55;1.00;;;;;;;;;;4997590;28;20156;-53
2024/01/10 06:48:44;;;;;;;2.40;1.10;;;;;;;;;;4996482;28;20447;-62
2024/01/10 06:51:11;;;;;;;2.30;0.82;;;;;;;;;;5001488;28;20085;-55
2024/01/10 06:53:36;;;;;;;2.20;1.30;;;;;;;;;;4998404;28;20068;-58
2024/01/10 06:56:01;;;;;;;2.08;1.20;;;;;;;;;;4992311;28;20375;-55
2024/01/10 06:58:27;;;;;;;1.98;1.20;;;;;;;;;;4996886;28;20123;-54
2024/01/10 07:00:52;;;;;;;1.80;1.15;;;;;;;;;;4999352;28;20018;-55
2024/01/10 07:03:17;;;;;;;3.47;1.30;;;;;;;;;;4999476;28;20038;-55
2024/01/10 07:05:44;;;;;;;2.30;1.30;;;;;;;;;;4999448;28;20528;-53
2024/01/10 07:08:09;;;;;;;2.30;1.40;;;;;;;;;;4991212;28;20386;-54
2024/01/10 07:10:35;;;;;;;2.60;1.00;;;;;;;;;;4994781;28;20018;-53
2024/01/10 07:13:04;;;;;;;2.97;1.13;;;;;;;;;;4978267;28;20117;-54
2024/01/10 07:15:29;;;;;;;3.35;1.35;;;;;;;;;;4998070;28;20536;-54
2024/01/10 07:17:54;;;;;;;2.58;1.38;;;;;;;;;;4998197;28;20047;-55
2024/01/10 07:20:20;;;;;;;3.53;1.33;;;;;;;;;;4997708;28;20014;-54
2024/01/10 07:22:45;;;;;;;2.20;1.20;;;;;;;;;;4998401;28;20044;-56
2024/01/10 07:25:14;;;;;;;3.05;1.30;;;;;;;;;;4996315;28;20497;-52
2024/01/10 07:27:42;;;;;;;3.13;1.38;;;;;;;;;;4997937;28;20049;-54
2024/01/10 07:30:13;;;;;;;3.38;1.38;;;;;;;;;;4997036;28;20026;-55
2024/01/10 07:32:48;;;;;;;2.85;1.40;;;;;;;;;;4996655;28;20038;-54
2024/01/10 07:35:13;;;;;;;2.55;1.40;;;;;;;;;;4997120;28;20053;-54
2024/01/10 07:37:42;;;;;;;2.70;1.42;;;;;;;;;;4992162;28;20034;-54
2024/01/10 07:40:10;;;;;;;2.50;1.15;;;;;;;;;;4999839;28;20430;-54
2024/01/10 07:42:36;;;;;;;3.08;1.50;;;;;;;;;;5001182;28;20060;-52
2024/01/10 07:45:04;;;;;;;2.30;1.40;;;;;;;;;;5006419;28;20054;-54
2024/01/10 07:47:34;;;;;;;2.78;1.38;;;;;;;;;;5006611;28;20141;-54
2024/01/10 07:49:59;;;;;;;2.83;1.10;;;;;;;;;;5001496;28;20030;-56
2024/01/10 07:52:24;;;;;;;3.35;1.52;;;;;;;;;;4999431;28;20037;-54
2024/01/10 07:54:50;;;;;;;2.35;1.50;;;;;;;;;;5000120;28;20502;-53
2024/01/10 07:57:18;;;;;;;3.58;1.55;;;;;;;;;;5002934;28;20108;-54
2024/01/10 07:59:43;;;;;;;2.00;1.30;;;;;;;;;;4998922;28;20038;-52
2024/01/10 08:02:10;;;;;;;3.35;1.50;;;;;;;;;;5002462;28;20061;-53
2024/01/10 08:04:35;;;;;;;3.42;1.25;;;;;;;;;;5003368;28;20080;-57
2024/01/10 08:07:01;;;;;;;3.00;1.50;;;;;;;;;;4979268;28;20415;-52
2024/01/10 08:09:27;;;;;;;2.53;1.23;;;;;;;;;;4999684;28;20061;-54
2024/01/10 08:11:53;;;;;;;3.25;1.77;;;;;;;;;;4997272;28;20584;-53
2024/01/10 08:14:18;;;;;;;1.92;1.27;;;;;;;;;;4998422;28;20048;-55
2024/01/10 08:16:44;;;;;;;2.38;1.35;;;;;;;;;;4998806;28;20030;-56
2024/01/10 08:19:10;;;;;;;3.38;1.50;;;;;;;;;;4977424;28;20050;-53
2024/01/10 08:21:36;;;;;;;3.58;1.40;;;;;;;;;;4998850;28;20034;-54
2024/01/10 08:24:02;;;;;;;2.45;1.33;;;;;;;;;;5000357;28;20104;-55
2024/01/10 08:26:27;;;;;;;2.67;1.50;;;;;;;;;;5001035;28;20513;-54
2024/01/10 08:28:52;;;;;;;3.35;1.30;;;;;;;;;;4999845;28;20145;-54
2024/01/10 08:31:18;;;;;;;2.55;1.48;;;;;;;;;;4988557;28;20492;-55
2024/01/10 08:33:43;;;;;;;3.15;1.48;;;;;;;;;;5002315;28;20466;-53
2024/01/10 08:36:12;;;;;;;2.42;1.48;;;;;;;;;;5004952;28;20068;-54
2024/01/10 08:38:38;;;;;;;2.60;1.30;;;;;;;;;;4996714;28;20038;-54
2024/01/10 08:41:03;;;;;;;2.42;1.33;;;;;;;;;;5005393;28;20088;-53
2024/01/10 08:43:28;;;;;;;2.38;1.48;;;;;;;;;;5007893;28;20057;-54
2024/01/10 08:45:54;;;;;;;5.03;1.60;;;;;;;;;;4999534;28;20029;-54
2024/01/10 08:48:19;;;;;;;2.78;1.35;;;;;;;;;;4986004;28;20034;-54
2024/01/10 08:50:44;;;;;;;4.07;1.63;;;;;;;;;;4994877;28;20496;-54
2024/01/10 08:53:10;;;;;;;1.98;1.23;;;;;;;;;;5015075;28;20513;-53
2024/01/10 08:55:36;;;;;;;2.72;1.48;;;;;;;;;;5003335;28;20065;-55
2024/01/10 08:58:02;;;;;;;2.78;1.60;;;;;;;;;;5001990;28;20101;-54
2024/01/10 09:00:28;;;;;;;3.17;1.50;;;;;;;;;;4985498;28;20034;-53
2024/01/10 09:02:54;;;;;;;3.05;1.17;;;;;;;;;;4992446;28;20049;-53
2024/01/10 09:05:21;;;;;;;2.65;1.58;;;;;;;;;;4982335;28;20041;-55
2024/01/10 09:07:47;;;;;;;3.13;1.60;;;;;;;;;;5006914;28;20168;-55
2024/01/10 09:10:12;;;;;;;2.65;1.42;;;;;;;;;;5001519;28;20532;-51
2024/01/10 09:12:38;;;;;;;2.60;1.50;;;;;;;;;;4995542;28;20120;-51
2024/01/10 09:15:03;;;;;;;3.05;1.38;;;;;;;;;;5005464;28;20029;-54
2024/01/10 09:17:29;;;;;;;2.50;1.40;;;;;;;;;;5000617;28;20124;-55
2024/01/10 09:19:54;;;;;;;2.22;1.40;;;;;;;;;;4990705;28;20473;-53
2024/01/10 09:22:20;;;;;;;2.13;1.30;;;;;;;;;;5003287;28;20042;-53
2024/01/10 09:24:45;;;;;;;3.33;1.50;;;;;;;;;;5005048;28;20070;-53
2024/01/10 09:27:10;;;;;;;2.83;1.40;;;;;;;;;;4999084;28;20510;-52
2024/01/10 09:29:36;;;;;;;2.80;1.50;;;;;;;;;;4999291;28;20035;-53
2024/01/10 09:32:01;;;;;;;3.28;1.70;;;;;;;;;;4997329;28;20482;-53
2024/01/10 09:34:26;;;;;;;2.78;1.30;;;;;;;;;;4996627;28;20053;-53
2024/01/10 09:36:52;;;;;;;2.38;1.48;;;;;;;;;;4995188;28;20121;-54
2024/01/10 09:39:17;;;;;;;2.35;1.40;;;;;;;;;;5007076;28;20042;-53
2024/01/10 09:41:50;;;;;;;2.60;1.30;;;;;;;;;;5005233;28;20425;-53
2024/01/10 09:44:17;;;;;;;3.95;1.80;;;;;;;;;;4995611;28;20120;-52
2024/01/10 09:46:43;;;;;;;2.15;1.23;;;;;;;;;;4991008;28;20042;-53
2024/01/10 09:49:09;;;;;;;3.42;1.58;;;;;;;;;;4998313;28;20061;-52
2024/01/10 09:51:34;;;;;;;2.90;1.73;;;;;;;;;;5006399;28;20552;-53
2024/01/10 09:54:00;;;;;;;3.85;1.50;;;;;;;;;;5008343;28;20033;-53
2024/01/10 09:56:25;;;;;;;3.10;1.60;;;;;;;;;;5008119;28;20473;-54
2024/01/10 09:58:51;;;;;;;2.28;1.52;;;;;;;;;;5006062;28;20410;-55
2024/01/10 10:01:17;;;;;;;2.83;1.40;;;;;;;;;;5005192;28;20046;-53
2024/01/10 10:03:43;;;;;;;2.90;1.67;;;;;;;;;;5007425;28;20045;-55
2024/01/10 10:06:08;;;;;;;3.22;1.38;;;;;;;;;;4989981;28;20082;-53
2024/01/10 10:08:33;;;;;;;3.17;1.52;;;;;;;;;;5007242;28;20030;-52
2024/01/10 10:10:59;;;;;;;4.20;1.90;;;;;;;;;;5006808;28;20070;-54
2024/01/10 10:13:25;;;;;;;3.47;1.70;;;;;;;;;;4989854;28;20054;-54
2024/01/10 10:16:00;;;;;;;3.38;1.85;;;;;;;;;;5006327;28;20058;-54
2024/01/10 10:18:26;;;;;;;2.83;1.50;;;;;;;;;;4989768;28;20042;-52
2024/01/10 10:21:05;;;;;;;2.63;1.60;;;;;;;;;;5006965;28;20533;-53
2024/01/10 10:23:31;;;;;;;3.38;1.73;;;;;;;;;;5006366;28;20042;-53
2024/01/10 10:25:56;;;;;;;3.75;1.50;;;;;;;;;;5006891;28;20042;-52
2024/01/10 10:28:22;;;;;;;2.28;1.60;;;;;;;;;;5006457;28;20049;-53
2024/01/10 10:30:47;;;;;;;3.30;1.67;;;;;;;;;;5002348;28;20537;-52
2024/01/10 10:33:12;;;;;;;2.42;1.63;;;;;;;;;;5006296;28;20053;-53
2024/01/10 10:35:38;;;;;;;3.00;1.60;;;;;;;;;;4989789;28;20038;-56
2024/01/10 10:38:03;;;;;;;2.47;1.35;;;;;;;;;;5006992;28;20045;-54
2024/01/10 10:40:28;;;;;;;3.00;1.67;;;;;;;;;;4989635;28;20529;-53
2024/01/10 10:42:56;;;;;;;3.60;1.80;;;;;;;;;;5005487;28;20111;-52
2024/01/10 10:45:25;;;;;;;3.25;1.55;;;;;;;;;;4989667;28;20545;-53
2024/01/10 10:47:53;;;;;;;2.85;1.70;;;;;;;;;;5007159;28;20037;-54
2024/01/10 10:50:20;;;;;;;3.50;1.70;;;;;;;;;;4989088;28;20038;-54
2024/01/10 10:52:48;;;;;;;2.83;1.75;;;;;;;;;;4987538;28;20036;-56
2024/01/10 10:55:15;;;;;;;2.80;1.55;;;;;;;;;;5012728;28;20042;-52
2024/01/10 10:57:40;;;;;;;3.05;1.90;;;;;;;;;;5007507;28;20018;-54
2024/01/10 11:00:07;;;;;;;2.50;1.80;;;;;;;;;;4989005;28;20434;-53
2024/01/10 11:02:32;;;;;;;2.60;1.45;;;;;;;;;;5003957;28;20045;-54
2024/01/10 11:04:57;;;;;;;2.47;1.52;;;;;;;;;;5007089;28;20163;-55
2024/01/10 11:07:23;;;;;;;2.80;1.60;;;;;;;;;;4991171;28;20086;-54
2024/01/10 11:09:48;;;;;;;3.33;1.70;;;;;;;;;;5009209;28;20569;-55
2024/01/10 11:12:24;;;;;;;2.50;1.65;;;;;;;;;;5005024;28;20014;-53
2024/01/10 11:14:54;;;;;;;2.40;1.40;;;;;;;;;;4971977;28;20034;-53
2024/01/10 11:17:26;;;;;;;3.80;1.80;;;;;;;;;;5006508;28;20072;-53
2024/01/10 11:20:00;;;;;;;2.63;1.85;;;;;;;;;;5005015;28;20137;-55
2024/01/10 11:22:29;;;;;;;3.15;1.75;;;;;;;;;;5001244;28;20093;-53
2024/01/10 11:24:55;;;;;;;2.40;1.60;;;;;;;;;;5004587;28;20083;-56
2024/01/10 11:27:20;;;;;;;2.75;1.70;;;;;;;;;;4988152;28;20120;-53
2024/01/10 11:29:46;;;;;;;3.13;1.70;;;;;;;;;;5006331;28;20065;-55
2024/01/10 11:32:14;;;;;;;3.42;1.95;;;;;;;;;;5006350;28;20533;-55
2024/01/10 11:34:58;;;;;;;4.03;1.92;;;;;;;;;;5004940;28;20089;-55
2024/01/10 11:37:23;;;;;;;2.97;1.55;;;;;;;;;;5006101;28;20466;-54
2024/01/10 11:39:50;;;;;;;3.60;1.63;;;;;;;;;;5006946;28;20053;-54
2024/01/10 11:42:23;;;;;;;2.40;1.58;;;;;;;;;;4989257;28;20057;-54
2024/01/10 11:44:51;;;;;;;2.60;1.45;;;;;;;;;;5006107;28;20555;-56
2024/01/10 11:47:18;;;;;;;3.25;1.70;;;;;;;;;;5006582;28;20361;-54
2024/01/10 11:50:04;;;;;;;2.65;1.63;;;;;;;;;;5005528;28;20048;-54
2024/01/10 11:52:33;;;;;;;3.10;1.60;;;;;;;;;;4998540;28;20034;-56
2024/01/10 11:54:59;;;;;;;3.20;1.60;;;;;;;;;;5003702;28;20172;-53
2024/01/10 11:57:27;;;;;;;2.72;1.52;;;;;;;;;;4992627;28;20120;-55
2024/01/10 11:59:53;;;;;;;2.42;1.50;;;;;;;;;;4982488;28;20034;-56
2024/01/10 12:02:19;;;;;;;2.78;1.60;;;;;;;;;;4996219;28;20040;-54
2024/01/10 12:04:45;;;;;;;3.25;1.83;;;;;;;;;;5004392;28;20430;-54
2024/01/10 12:07:11;;;;;;;2.83;1.63;;;;;;;;;;4988110;28;20424;-56
2024/01/10 12:09:36;;;;;;;2.97;1.67;;;;;;;;;;5004600;28;20160;-55
2024/01/10 12:12:04;;;;;;;2.92;1.65;;;;;;;;;;5005686;28;20038;-54
2024/01/10 12:14:30;;;;;;;2.90;1.80;;;;;;;;;;5003945;28;20227;-54
2024/01/10 12:16:56;;;;;;;3.33;1.90;;;;;;;;;;4987827;28;20456;-53
2024/01/10 12:19:21;;;;;;;2.50;1.65;;;;;;;;;;5010143;28;20080;-53
2024/01/10 12:21:47;;;;;;;2.67;1.50;;;;;;;;;;5004592;28;20046;-54
2024/01/10 12:24:13;;;;;;;2.67;1.60;;;;;;;;;;5005751;28;20046;-55
2024/01/10 12:26:47;;;;;;;2.50;1.67;;;;;;;;;;5004982;28;20120;-56
2024/01/10 12:29:12;;;;;;;3.20;2.00;;;;;;;;;;4984171;28;20851;-52
2024/01/10 12:31:42;;;;;;;2.85;1.70;;;;;;;;;;4998809;28;20068;-53
2024/01/10 12:34:10;;;;;;;3.00;1.88;;;;;;;;;;5000809;28;20737;-54
2024/01/10 12:36:35;;;;;;;2.85;1.77;;;;;;;;;;5000622;28;20046;-53
2024/01/10 12:39:01;;;;;;;3.20;1.80;;;;;;;;;;5000500;28;20052;-54
2024/01/10 12:41:26;;;;;;;3.22;1.83;;;;;;;;;;4998638;28;20516;-54
2024/01/10 12:43:55;;;;;;;3.95;1.73;;;;;;;;;;5000981;28;20096;-53
2024/01/10 12:46:20;;;;;;;4.13;1.92;;;;;;;;;;5004158;28;20038;-54
2024/01/10 12:48:46;;;;;;;2.67;1.80;;;;;;;;;;5018448;28;20571;-53
2024/01/10 12:51:11;;;;;;;2.92;1.90;;;;;;;;;;5004375;28;20053;-53
2024/01/10 12:53:41;;;;;;;3.35;1.80;;;;;;;;;;5006333;28;20042;-54
2024/01/10 12:56:07;;;;;;;3.03;2.00;;;;;;;;;;5006000;28;20076;-53
2024/01/10 12:58:33;;;;;;;2.80;1.83;;;;;;;;;;5007776;28;20065;-55
2024/01/10 13:00:58;;;;;;;2.95;1.73;;;;;;;;;;5008665;28;20037;-53
2024/01/10 13:03:24;;;;;;;2.75;1.92;;;;;;;;;;5002103;28;20033;-52
2024/01/10 13:05:49;;;;;;;3.05;1.90;;;;;;;;;;4996575;28;20018;-54
2024/01/10 13:08:15;;;;;;;2.90;1.98;;;;;;;;;;4989912;28;20022;-53
2024/01/10 13:10:41;;;;;;;3.65;2.35;;;;;;;;;;4999683;28;20131;-54
2024/01/10 13:13:06;;;;;;;3.33;1.95;;;;;;;;;;5018975;28;20026;-53
2024/01/10 13:15:31;;;;;;;3.90;2.17;;;;;;;;;;5008816;28;20041;-53
2024/01/10 13:17:57;;;;;;;3.90;2.15;;;;;;;;;;4987254;28;20026;-53
2024/01/10 13:20:24;;;;;;;3.20;1.92;;;;;;;;;;5001260;28;20029;-55
2024/01/10 13:22:50;;;;;;;3.50;2.10;;;;;;;;;;4994259;28;20402;-54
2024/01/10 13:25:16;;;;;;;3.67;2.10;;;;;;;;;;5006595;28;20034;-53
2024/01/10 13:27:41;;;;;;;3.90;2.20;;;;;;;;;;5005066;28;20025;-54
2024/01/10 13:30:07;;;;;;;3.65;2.40;;;;;;;;;;5011287;28;20029;-53
2024/01/10 13:32:32;;;;;;;4.03;2.17;;;;;;;;;;5005914;28;20060;-54
2024/01/10 13:34:57;;;;;;;5.10;2.45;;;;;;;;;;4999392;28;20076;-54
2024/01/10 13:37:23;;;;;;;5.25;2.10;;;;;;;;;;4994946;28;20045;-54
2024/01/10 13:39:48;;;;;;;3.83;2.50;;;;;;;;;;5000009;28;20010;-54
2024/01/10 13:42:14;;;;;;;2.60;1.98;;;;;;;;;;5026037;23;20076;-54
2024/01/10 13:44:39;;;;;;;3.15;2.25;;;;;;;;;;5016487;28;20033;-53
2024/01/10 13:47:05;;;;;;;3.70;2.35;;;;;;;;;;5028241;28;20409;-53
2024/01/10 13:49:30;;;;;;;4.30;2.47;;;;;;;;;;5027776;28;20497;-54
2024/01/10 13:51:55;;;;;;;3.95;2.40;;;;;;;;;;5026513;28;20395;-54
2024/01/10 13:54:24;;;;;;;3.55;2.30;;;;;;;;;;5029100;28;20503;-54
2024/01/10 13:56:49;;;;;;;4.15;2.30;;;;;;;;;;5028875;28;20115;-54
2024/01/10 13:59:14;;;;;;;3.22;2.20;;;;;;;;;;5019680;28;20478;-54
2024/01/10 14:01:40;;;;;;;4.43;2.30;;;;;;;;;;4998822;28;20040;-54
2024/01/10 14:04:05;;;;;;;4.18;2.08;;;;;;;;;;5019891;28;20057;-53
2024/01/10 14:06:31;;;;;;;4.28;2.40;;;;;;;;;;5019479;28;20506;-54
2024/01/10 14:08:57;;;;;;;3.83;2.38;;;;;;;;;;5000483;28;20102;-54
2024/01/10 14:11:23;;;;;;;3.50;2.28;;;;;;;;;;5019027;28;20085;-55
2024/01/10 14:13:49;;;;;;;4.30;2.58;;;;;;;;;;5021343;28;20042;-54
2024/01/10 14:16:14;;;;;;;4.47;2.72;;;;;;;;;;5021287;28;20045;-54
2024/01/10 14:18:39;;;;;;;3.65;2.40;;;;;;;;;;5020343;28;20037;-54
2024/01/10 14:21:05;;;;;;;5.18;2.60;;;;;;;;;;5021633;28;20033;-54
2024/01/10 14:23:30;;;;;;;4.82;2.70;;;;;;;;;;5019098;28;20046;-54
2024/01/10 14:25:55;;;;;;;3.22;2.20;;;;;;;;;;5000853;28;20553;-55
2024/01/10 14:28:21;;;;;;;3.75;2.55;;;;;;;;;;5018379;28;20037;-55
2024/01/10 14:30:46;;;;;;;3.85;2.50;;;;;;;;;;5021114;28;20518;-54
2024/01/10 14:33:13;;;;;;;4.90;2.78;;;;;;;;;;5000155;28;20099;-54
2024/01/10 14:35:39;;;;;;;4.43;2.47;;;;;;;;;;5019255;28;20034;-54